Time;durP1;ratioP1;P1;durP2;ratioP2;P2;SDS_P1;SDS_P2;PMS_P1;PMS_P2;Temp;Humidity;BMP_temperature;BMP_pressure;BME280_temperature;BME280_humidity;BME280_pressure;Samples;Min_cycle;Max_cycle;Signal;HPM_P1;HPM_P2
2024/03/02 00:00:40;;;;;;;4.05;3.20;;;7.20;97.50;;;;;;4994769;28;20050;-70
2024/03/02 00:03:09;;;;;;;4.82;4.43;;;7.20;97.50;;;;;;5009889;28;20459;-70
2024/03/02 00:05:36;;;;;;;5.72;3.55;;;7.20;97.50;;;;;;5009761;28;20500;-70
2024/03/02 00:08:05;;;;;;;4.45;3.03;;;7.20;97.60;;;;;;4994858;28;20088;-70
2024/03/02 00:10:41;;;;;;;6.60;3.70;;;7.20;97.60;;;;;;4977564;28;20069;-69
2024/03/02 00:13:09;;;;;;;4.28;2.80;;;7.20;97.70;;;;;;4993711;28;20042;-70
2024/03/02 00:15:46;;;;;;;3.40;3.10;;;7.20;97.80;;;;;;4977416;28;20051;-70
2024/03/02 00:18:18;;;;;;;5.63;3.88;;;7.20;97.70;;;;;;5026320;28;20050;-70
2024/03/02 00:20:46;;;;;;;6.28;5.22;;;7.20;97.90;;;;;;4993262;28;20046;-70
2024/03/02 00:23:19;;;;;;;4.03;3.60;;;7.20;97.90;;;;;;5009760;28;20108;-69
2024/03/02 00:25:55;;;;;;;3.95;3.55;;;7.40;97.90;;;;;;5009495;28;20046;-70
2024/03/02 00:28:25;;;;;;;5.35;3.85;;;7.30;97.90;;;;;;4994547;28;20044;-70
2024/03/02 00:30:59;;;;;;;5.30;3.30;;;7.20;97.90;;;;;;4994427;28;20097;-70
2024/03/02 00:33:28;;;;;;;5.55;4.22;;;7.20;98.00;;;;;;4993354;28;20141;-70
2024/03/02 00:35:56;;;;;;;6.78;5.88;;;7.20;98.00;;;;;;4993936;28;20058;-70
2024/03/02 00:38:23;;;;;;;5.57;5.07;;;7.20;98.00;;;;;;4993141;28;20046;-70
2024/03/02 00:40:51;;;;;;;8.02;6.45;;;7.30;98.00;;;;;;4992958;28;20423;-70
2024/03/02 00:43:47;;;;;;;5.93;3.88;;;7.30;98.00;;;;;;4994330;28;20042;-70
2024/03/02 00:46:18;;;;;;;10.43;5.53;;;7.40;98.00;;;;;;4993745;28;20042;-70
2024/03/02 00:48:52;;;;;;;7.90;5.03;;;7.50;97.80;;;;;;4993907;28;20038;-70
2024/03/02 00:51:20;;;;;;;8.35;5.15;;;7.60;97.70;;;;;;4992866;28;20053;-70
2024/03/02 00:53:47;;;;;;;9.18;5.97;;;7.60;97.50;;;;;;4976514;28;20113;-70
2024/03/02 00:56:14;;;;;;;9.10;3.88;;;7.70;97.50;;;;;;4992708;28;20039;-70
2024/03/02 00:58:42;;;;;;;8.88;4.53;;;7.70;97.50;;;;;;4992770;28;20198;-70
2024/03/02 01:01:09;;;;;;;8.38;5.05;;;7.70;97.40;;;;;;4992679;28;20168;-70
2024/03/02 01:03:37;;;;;;;7.05;4.03;;;7.80;97.30;;;;;;4976617;28;20053;-70
2024/03/02 01:06:05;;;;;;;6.72;4.25;;;7.80;97.40;;;;;;4976465;28;20046;-70
2024/03/02 01:08:32;;;;;;;7.57;5.70;;;7.80;97.40;;;;;;4993735;28;20443;-70
2024/03/02 01:10:59;;;;;;;8.02;6.20;;;7.90;97.30;;;;;;4993641;28;20050;-70
2024/03/02 01:13:26;;;;;;;6.78;6.18;;;7.80;97.30;;;;;;4992487;28;20046;-69
2024/03/02 01:15:53;;;;;;;8.23;5.30;;;7.90;97.30;;;;;;4992094;28;20046;-70
2024/03/02 01:18:20;;;;;;;9.35;7.13;;;7.90;97.40;;;;;;4993659;28;20126;-70
2024/03/02 01:20:48;;;;;;;10.30;6.13;;;7.90;97.30;;;;;;4992184;28;20050;-70
2024/03/02 01:23:15;;;;;;;6.30;4.82;;;7.90;97.30;;;;;;5008600;28;20054;-70
2024/03/02 01:25:42;;;;;;;7.93;6.53;;;7.90;97.30;;;;;;4993445;28;20069;-70
2024/03/02 01:28:09;;;;;;;7.78;6.65;;;7.90;97.20;;;;;;4993152;28;20093;-70
2024/03/02 01:30:36;;;;;;;7.25;6.60;;;8.10;97.20;;;;;;4976162;28;20125;-70
2024/03/02 01:33:05;;;;;;;4.55;3.92;;;7.90;97.20;;;;;;4991867;28;20128;-69
2024/03/02 01:35:32;;;;;;;4.00;3.30;;;7.90;97.20;;;;;;4993200;28;20082;-70
2024/03/02 01:37:59;;;;;;;4.15;3.20;;;8.00;97.30;;;;;;4993134;28;20046;-69
2024/03/02 01:40:26;;;;;;;5.75;4.07;;;8.00;97.30;;;;;;5008360;28;20050;-70
2024/03/02 01:42:54;;;;;;;7.60;6.88;;;8.00;97.30;;;;;;5008152;28;20377;-71
2024/03/02 01:45:21;;;;;;;6.28;4.20;;;8.00;97.10;;;;;;4976073;28;20082;-70
2024/03/02 01:47:49;;;;;;;4.60;3.70;;;8.00;97.20;;;;;;4975878;28;20046;-70
2024/03/02 01:50:24;;;;;;;5.25;4.50;;;8.10;97.20;;;;;;4991882;28;20141;-70
2024/03/02 01:52:51;;;;;;;5.97;4.00;;;8.10;97.10;;;;;;4993000;28;20043;-70
2024/03/02 01:55:18;;;;;;;5.20;4.72;;;8.10;97.20;;;;;;4992938;28;20097;-70
2024/03/02 01:57:45;;;;;;;6.00;4.22;;;8.30;97.00;;;;;;5007341;28;20043;-70
2024/03/02 02:00:12;;;;;;;6.00;5.50;;;8.00;97.00;;;;;;4991602;28;20414;-70
2024/03/02 02:02:40;;;;;;;5.40;3.80;;;8.10;97.00;;;;;;4991720;28;20050;-70
2024/03/02 02:05:07;;;;;;;5.25;3.70;;;8.10;97.10;;;;;;4991600;28;20096;-70
2024/03/02 02:07:35;;;;;;;5.53;4.97;;;8.10;96.90;;;;;;4992839;28;20116;-70
2024/03/02 02:10:02;;;;;;;5.55;5.00;;;8.10;96.80;;;;;;4992685;28;20046;-70
2024/03/02 02:12:30;;;;;;;4.88;3.33;;;8.10;96.70;;;;;;4991627;28;20058;-70
2024/03/02 02:14:57;;;;;;;4.82;4.20;;;8.10;96.80;;;;;;4975291;28;20050;-69
2024/03/02 02:17:23;;;;;;;4.40;3.75;;;8.20;96.60;;;;;;4991848;28;20050;-70
2024/03/02 02:19:51;;;;;;;6.20;4.15;;;8.20;96.70;;;;;;4991645;28;20038;-70
2024/03/02 02:22:17;;;;;;;3.60;2.95;;;8.30;96.70;;;;;;4991438;28;20109;-70
2024/03/02 02:24:44;;;;;;;5.57;3.95;;;8.30;96.70;;;;;;4992834;28;20034;-69
2024/03/02 02:27:14;;;;;;;3.38;3.08;;;8.30;96.80;;;;;;4991319;28;20046;-70
2024/03/02 02:29:42;;;;;;;4.13;3.13;;;8.30;96.60;;;;;;4992792;28;20556;-69
2024/03/02 02:32:09;;;;;;;4.85;4.45;;;8.40;96.70;;;;;;4992488;28;20042;-70
2024/03/02 02:34:36;;;;;;;3.55;3.25;;;8.40;96.40;;;;;;4991376;28;20059;-70
2024/03/02 02:37:03;;;;;;;3.42;3.13;;;8.40;96.50;;;;;;4991150;28;20396;-70
2024/03/02 02:39:30;;;;;;;4.00;3.65;;;8.40;96.50;;;;;;4992697;28;20122;-70
2024/03/02 02:41:57;;;;;;;4.78;3.22;;;8.40;96.50;;;;;;4991261;28;20047;-70
2024/03/02 02:44:24;;;;;;;3.53;2.50;;;8.50;96.50;;;;;;4992685;28;20050;-69
2024/03/02 02:46:51;;;;;;;5.32;3.95;;;8.50;96.50;;;;;;4991358;28;20455;-70
2024/03/02 02:49:17;;;;;;;2.55;2.03;;;8.50;96.40;;;;;;4991094;28;20043;-70
2024/03/02 02:51:44;;;;;;;3.75;3.15;;;8.50;96.50;;;;;;4991334;28;20046;-70
2024/03/02 02:54:11;;;;;;;4.05;3.58;;;8.50;96.60;;;;;;5007462;28;20124;-69
2024/03/02 02:56:39;;;;;;;3.47;3.10;;;8.50;96.60;;;;;;4992595;28;20038;-70
2024/03/02 02:59:06;;;;;;;3.70;3.03;;;8.50;96.70;;;;;;4991078;28;20072;-70
2024/03/02 03:01:33;;;;;;;4.82;3.17;;;8.40;96.80;;;;;;4991466;28;20561;-70
2024/03/02 03:04:00;;;;;;;2.92;2.53;;;8.40;96.80;;;;;;4991149;28;20050;-70
2024/03/02 03:06:27;;;;;;;4.47;4.07;;;8.40;96.90;;;;;;5007703;28;20447;-70
2024/03/02 03:08:54;;;;;;;3.20;2.67;;;8.30;96.90;;;;;;5009301;28;20047;-70
2024/03/02 03:11:22;;;;;;;3.15;2.85;;;8.30;97.00;;;;;;4994562;28;20074;-70
2024/03/02 03:13:49;;;;;;;3.65;2.67;;;8.30;97.00;;;;;;4995807;28;20117;-70
2024/03/02 03:16:16;;;;;;;3.65;3.10;;;8.30;97.10;;;;;;4994802;28;20110;-69
2024/03/02 03:18:43;;;;;;;2.97;2.33;;;8.30;97.30;;;;;;4994668;28;20042;-69
2024/03/02 03:21:10;;;;;;;2.88;2.63;;;8.40;97.10;;;;;;4978288;28;20078;-70
2024/03/02 03:23:37;;;;;;;3.30;2.88;;;8.50;97.00;;;;;;4994579;28;20050;-70
2024/03/02 03:26:04;;;;;;;3.50;2.50;;;8.50;96.90;;;;;;4995598;28;20054;-69
2024/03/02 03:28:31;;;;;;;2.78;1.95;;;8.50;97.10;;;;;;4995683;28;20480;-69
2024/03/02 03:30:58;;;;;;;4.40;2.25;;;8.60;96.80;;;;;;4994554;28;20093;-70
2024/03/02 03:33:25;;;;;;;2.75;2.10;;;8.60;96.70;;;;;;4995527;28;20039;-70
2024/03/02 03:35:53;;;;;;;3.22;2.83;;;8.60;96.70;;;;;;4978084;28;20144;-70
2024/03/02 03:38:20;;;;;;;3.78;3.05;;;8.70;96.70;;;;;;4994351;28;20495;-70
2024/03/02 03:40:47;;;;;;;3.28;2.97;;;8.70;96.60;;;;;;4995584;28;20070;-70
2024/03/02 03:43:14;;;;;;;2.42;2.05;;;8.70;96.80;;;;;;4994173;28;20042;-70
2024/03/02 03:45:41;;;;;;;2.88;2.40;;;8.70;96.70;;;;;;4994203;28;20046;-70
2024/03/02 03:48:09;;;;;;;3.55;3.35;;;8.70;96.80;;;;;;4993935;28;20389;-70
2024/03/02 03:50:36;;;;;;;4.38;3.33;;;8.70;96.80;;;;;;4995300;28;20035;-70
2024/03/02 03:53:03;;;;;;;2.60;2.20;;;8.70;96.60;;;;;;4995252;28;20096;-70
2024/03/02 03:55:30;;;;;;;4.25;3.85;;;8.60;96.70;;;;;;5010149;28;20042;-69
2024/03/02 03:57:57;;;;;;;4.70;2.83;;;8.60;96.50;;;;;;4977939;28;20046;-70
2024/03/02 04:00:24;;;;;;;4.18;2.83;;;8.60;96.60;;;;;;5008534;28;20049;-70
2024/03/02 04:02:51;;;;;;;3.97;2.50;;;8.50;96.70;;;;;;4994548;28;20061;-69
2024/03/02 04:05:18;;;;;;;1.83;1.70;;;8.50;96.80;;;;;;4992669;28;20042;-70
2024/03/02 04:07:45;;;;;;;4.18;3.45;;;8.40;96.90;;;;;;4993121;28;20078;-70
2024/03/02 04:10:12;;;;;;;3.45;2.88;;;8.30;96.90;;;;;;4993512;28;20042;-69
2024/03/02 04:12:39;;;;;;;4.57;3.30;;;8.30;97.10;;;;;;4994956;28;20117;-70
2024/03/02 04:15:08;;;;;;;3.67;3.38;;;8.20;97.10;;;;;;4994917;28;20157;-70
2024/03/02 04:17:35;;;;;;;2.80;2.60;;;8.20;97.20;;;;;;4994924;28;20038;-69
2024/03/02 04:20:05;;;;;;;4.38;2.70;;;8.20;97.30;;;;;;4992756;28;20058;-69
2024/03/02 04:22:34;;;;;;;3.25;3.00;;;8.20;97.30;;;;;;4993358;28;20389;-70
2024/03/02 04:25:04;;;;;;;2.35;1.92;;;8.30;97.30;;;;;;4993538;28;20165;-69
2024/03/02 04:27:33;;;;;;;2.85;2.60;;;8.30;97.20;;;;;;4993242;28;20050;-70
2024/03/02 04:30:00;;;;;;;2.55;2.03;;;8.30;97.10;;;;;;4977153;28;20046;-70
2024/03/02 04:32:27;;;;;;;3.30;3.00;;;8.40;97.20;;;;;;4977027;28;20047;-70
2024/03/02 04:34:54;;;;;;;3.28;2.88;;;8.40;97.10;;;;;;4977204;28;20550;-70
2024/03/02 04:37:21;;;;;;;3.88;3.47;;;8.30;97.20;;;;;;4994283;28;20443;-70
2024/03/02 04:39:48;;;;;;;3.15;2.85;;;8.30;97.40;;;;;;4993230;28;20058;-70
2024/03/02 04:42:15;;;;;;;2.28;1.90;;;8.30;97.20;;;;;;5009206;28;20522;-70
2024/03/02 04:44:42;;;;;;;2.45;2.13;;;8.30;97.20;;;;;;4977112;28;20114;-70
2024/03/02 04:47:09;;;;;;;3.75;3.05;;;8.30;97.20;;;;;;5009395;28;20051;-70
2024/03/02 04:49:36;;;;;;;2.80;2.40;;;8.40;97.10;;;;;;4992795;28;20045;-70
2024/03/02 04:52:04;;;;;;;2.58;2.38;;;8.30;97.10;;;;;;4993131;28;20492;-69
2024/03/02 04:54:31;;;;;;;3.60;3.30;;;8.30;97.10;;;;;;4992797;28;20057;-70
2024/03/02 04:56:58;;;;;;;3.22;2.92;;;8.20;97.10;;;;;;4993041;28;20045;-69
2024/03/02 04:59:25;;;;;;;4.22;3.55;;;8.20;97.20;;;;;;5009024;28;20149;-69
2024/03/02 05:01:52;;;;;;;2.58;2.15;;;8.20;97.20;;;;;;4992820;28;20050;-69
2024/03/02 05:04:19;;;;;;;3.78;2.97;;;8.30;97.20;;;;;;4993833;28;20039;-70
2024/03/02 05:06:52;;;;;;;4.32;3.92;;;8.30;97.00;;;;;;4993887;28;20053;-70
2024/03/02 05:09:19;;;;;;;5.10;3.80;;;8.30;97.10;;;;;;4992335;28;20143;-69
2024/03/02 05:12:05;;;;;;;4.10;3.38;;;8.30;97.00;;;;;;4992762;28;20507;-70
2024/03/02 05:14:32;;;;;;;3.42;3.13;;;8.30;97.00;;;;;;4992388;28;20039;-69
2024/03/02 05:16:59;;;;;;;4.65;3.25;;;8.30;97.10;;;;;;4992435;28;20042;-70
2024/03/02 05:19:26;;;;;;;2.85;2.25;;;8.30;97.00;;;;;;4992367;28;20065;-70
2024/03/02 05:21:53;;;;;;;3.47;3.10;;;8.30;97.00;;;;;;5008749;28;20049;-70
2024/03/02 05:24:20;;;;;;;3.38;2.50;;;8.30;96.90;;;;;;4992067;28;20141;-70
2024/03/02 05:26:47;;;;;;;3.00;2.53;;;8.30;97.00;;;;;;4992442;28;20097;-69
2024/03/02 05:29:14;;;;;;;5.25;3.65;;;8.30;97.00;;;;;;4992339;28;20097;-70
2024/03/02 05:31:41;;;;;;;4.18;3.33;;;8.30;97.10;;;;;;5008305;28;20049;-70
2024/03/02 05:34:08;;;;;;;3.65;3.35;;;8.10;97.20;;;;;;4992233;28;20034;-70
2024/03/02 05:36:35;;;;;;;3.33;2.72;;;8.10;97.20;;;;;;4993308;28;20109;-70
2024/03/02 05:39:04;;;;;;;4.25;2.75;;;7.90;97.40;;;;;;4992216;28;20509;-69
2024/03/02 05:41:31;;;;;;;3.78;2.58;;;7.80;97.60;;;;;;5008370;28;20082;-70
2024/03/02 05:43:58;;;;;;;2.60;2.40;;;7.80;97.70;;;;;;4976146;28;20558;-69
2024/03/02 05:46:26;;;;;;;2.88;2.35;;;7.70;97.80;;;;;;4993030;28;20046;-69
2024/03/02 05:48:53;;;;;;;4.63;2.83;;;7.60;97.90;;;;;;4991850;28;20046;-69
2024/03/02 05:51:20;;;;;;;3.13;1.85;;;7.70;98.00;;;;;;4993203;28;20129;-70
2024/03/02 05:53:47;;;;;;;3.08;2.78;;;7.50;98.00;;;;;;4992122;28;20050;-70
2024/03/02 05:56:14;;;;;;;3.38;3.08;;;7.50;98.10;;;;;;4991982;28;20546;-70
2024/03/02 06:01:28;;;;;;;4.30;2.83;;;7.50;98.10;;;;;;4977064;28;20051;-70
2024/03/02 06:03:56;;;;;;;2.17;1.92;;;7.80;98.10;;;;;;4975528;28;20140;-70
2024/03/02 06:06:23;;;;;;;2.67;2.40;;;7.70;98.10;;;;;;4958287;28;20097;-69
2024/03/02 06:08:51;;;;;;;2.30;2.03;;;7.60;98.10;;;;;;4991650;28;20050;-70
2024/03/02 06:11:21;;;;;;;3.20;2.90;;;7.60;98.10;;;;;;4991813;28;20050;-69
2024/03/02 06:13:48;;;;;;;1.90;1.73;;;7.70;98.10;;;;;;4991375;28;20057;-69
2024/03/02 06:16:15;;;;;;;3.83;1.73;;;7.80;98.10;;;;;;4991817;28;20046;-69
2024/03/02 06:18:42;;;;;;;3.28;3.03;;;7.80;98.00;;;;;;4991495;28;20042;-70
2024/03/02 06:21:09;;;;;;;3.00;2.75;;;7.70;98.00;;;;;;4975523;28;20046;-70
2024/03/02 06:23:36;;;;;;;4.78;3.67;;;7.70;98.10;;;;;;4991364;28;20464;-69
2024/03/02 06:26:03;;;;;;;3.85;3.10;;;7.60;98.20;;;;;;4991608;28;20042;-69
2024/03/02 06:28:30;;;;;;;3.72;2.40;;;7.50;98.20;;;;;;4992528;28;20034;-69
2024/03/02 06:30:57;;;;;;;5.72;4.30;;;7.40;98.50;;;;;;4975392;28;20447;-70
2024/03/02 06:33:24;;;;;;;4.60;2.88;;;7.30;98.80;;;;;;4991574;28;20042;-69
2024/03/02 06:35:51;;;;;;;3.38;2.97;;;7.20;99.00;;;;;;4990284;28;20047;-69
2024/03/02 06:38:18;;;;;;;3.90;3.50;;;7.20;99.10;;;;;;4992642;28;20066;-69
2024/03/02 06:40:45;;;;;;;2.58;2.28;;;7.20;99.30;;;;;;4975175;28;20074;-70
2024/03/02 06:43:12;;;;;;;4.43;4.03;;;7.20;99.30;;;;;;4992130;28;20496;-70
2024/03/02 06:45:39;;;;;;;2.08;1.73;;;7.20;99.30;;;;;;4994944;28;20089;-70
2024/03/02 06:48:06;;;;;;;4.57;3.95;;;7.20;99.30;;;;;;4995180;28;20053;-69
2024/03/02 06:50:33;;;;;;;3.42;2.78;;;7.20;99.30;;;;;;4994926;28;20046;-70
2024/03/02 06:53:00;;;;;;;1.75;1.45;;;7.20;99.40;;;;;;4995056;28;20181;-69
2024/03/02 06:55:27;;;;;;;3.28;2.75;;;7.20;99.30;;;;;;4995030;28;20089;-69
2024/03/02 06:57:54;;;;;;;4.30;2.10;;;7.30;99.40;;;;;;4994675;28;20046;-69
2024/03/02 07:00:21;;;;;;;4.28;3.88;;;7.40;99.20;;;;;;4996180;28;20435;-70
2024/03/02 07:02:48;;;;;;;4.63;2.40;;;7.50;99.00;;;;;;4994860;28;20488;-69
2024/03/02 07:05:15;;;;;;;3.88;3.58;;;7.60;98.90;;;;;;4995132;28;20509;-69
2024/03/02 07:07:42;;;;;;;4.28;3.05;;;7.80;98.90;;;;;;4994732;28;20054;-69
2024/03/02 07:10:10;;;;;;;4.22;2.53;;;7.90;98.70;;;;;;4996001;28;20116;-69
2024/03/02 07:12:37;;;;;;;4.93;4.53;;;8.00;98.60;;;;;;4978667;28;20450;-69
2024/03/02 07:17:32;;;;;;;3.95;2.92;;;8.10;98.50;;;;;;4996010;28;20045;-69
2024/03/02 07:19:59;;;;;;;2.78;2.47;;;8.10;98.40;;;;;;4994683;28;20483;-69
2024/03/02 07:22:26;;;;;;;3.22;2.15;;;8.20;98.20;;;;;;4994521;28;20050;-69
2024/03/02 07:24:53;;;;;;;3.83;3.53;;;8.30;98.10;;;;;;4996028;28;20480;-69
2024/03/02 07:27:20;;;;;;;2.47;2.15;;;8.30;98.00;;;;;;4978350;28;20042;-69
2024/03/02 07:29:47;;;;;;;5.20;3.60;;;8.30;98.00;;;;;;4994046;28;20050;-69
2024/03/02 07:32:14;;;;;;;3.10;2.80;;;8.30;98.10;;;;;;4994389;28;20042;-69
2024/03/02 07:34:41;;;;;;;4.18;3.08;;;8.30;98.10;;;;;;4991787;28;20094;-69
2024/03/02 07:37:09;;;;;;;2.85;2.22;;;8.20;98.30;;;;;;4994297;28;20092;-69
2024/03/02 07:39:36;;;;;;;2.40;1.70;;;8.40;98.60;;;;;;4995371;28;20455;-69
2024/03/02 07:42:05;;;;;;;2.95;2.50;;;8.70;98.40;;;;;;4977996;28;20054;-69
2024/03/02 07:44:32;;;;;;;3.88;2.10;;;9.10;98.10;;;;;;4995408;28;20038;-69
2024/03/02 07:46:59;;;;;;;2.47;2.17;;;9.60;97.50;;;;;;4995115;28;20047;-69
2024/03/02 07:49:26;;;;;;;3.03;2.72;;;10.00;96.20;;;;;;4995147;28;20042;-69
2024/03/02 07:51:53;;;;;;;4.25;3.25;;;10.20;96.10;;;;;;4961675;28;20081;-69
2024/03/02 07:54:20;;;;;;;3.55;3.08;;;10.50;95.90;;;;;;4994603;28;20042;-69
2024/03/02 07:56:47;;;;;;;3.05;2.42;;;10.50;95.10;;;;;;4993202;28;20046;-69
2024/03/02 07:59:14;;;;;;;4.00;3.20;;;10.50;94.70;;;;;;4993939;28;20050;-69
2024/03/02 08:01:41;;;;;;;2.70;2.25;;;10.30;94.80;;;;;;4977665;28;20046;-69
2024/03/02 08:04:08;;;;;;;3.50;2.85;;;10.10;95.30;;;;;;4995072;28;20049;-69
2024/03/02 08:06:35;;;;;;;2.00;1.80;;;9.80;95.40;;;;;;4993668;28;20089;-69
2024/03/02 08:09:09;;;;;;;4.53;3.80;;;9.70;95.70;;;;;;4977470;28;20038;-69
2024/03/02 08:11:37;;;;;;;4.75;3.53;;;9.50;95.80;;;;;;4994947;28;20047;-69
2024/03/02 08:14:04;;;;;;;2.40;2.20;;;9.40;96.20;;;;;;4977287;28;20050;-69
2024/03/02 08:16:31;;;;;;;2.08;1.83;;;9.40;96.20;;;;;;4993633;28;20046;-69
2024/03/02 08:18:59;;;;;;;3.85;3.17;;;9.40;96.40;;;;;;4994593;28;20074;-69
2024/03/02 08:21:26;;;;;;;2.63;2.33;;;9.40;96.50;;;;;;4993427;28;20042;-69
2024/03/02 08:23:53;;;;;;;4.85;3.00;;;9.40;96.40;;;;;;4993182;28;20054;-69
2024/03/02 08:26:20;;;;;;;3.60;2.20;;;9.40;96.60;;;;;;4977138;28;20046;-69
2024/03/02 08:28:47;;;;;;;3.67;2.55;;;9.40;96.50;;;;;;4993445;28;20081;-69
2024/03/02 08:31:14;;;;;;;3.80;3.47;;;9.40;96.50;;;;;;4977294;28;20097;-69
2024/03/02 08:33:41;;;;;;;2.78;2.47;;;9.40;96.70;;;;;;4993520;28;20096;-69
2024/03/02 08:36:09;;;;;;;3.88;3.20;;;9.50;96.70;;;;;;4990723;28;20476;-69
2024/03/02 08:38:36;;;;;;;4.13;2.13;;;9.40;96.70;;;;;;4994372;28;20440;-69
2024/03/02 08:41:04;;;;;;;3.08;2.75;;;9.50;96.70;;;;;;4992903;28;20050;-69
2024/03/02 08:43:31;;;;;;;2.95;2.05;;;9.50;96.60;;;;;;4992892;28;20105;-69
2024/03/02 08:45:58;;;;;;;5.07;2.72;;;9.60;96.50;;;;;;4992837;28;20045;-69
2024/03/02 08:48:25;;;;;;;2.40;1.83;;;9.60;96.40;;;;;;4976978;28;20053;-69
2024/03/02 08:50:52;;;;;;;3.00;2.70;;;9.60;96.50;;;;;;4993820;28;20047;-69
2024/03/02 08:53:19;;;;;;;22.58;17.38;;;9.70;96.40;;;;;;4992717;28;20408;-69
2024/03/02 08:55:49;;;;;;;9.05;8.07;;;9.80;96.60;;;;;;4992626;28;20084;-69
2024/03/02 08:58:16;;;;;;;3.65;3.33;;;9.80;96.50;;;;;;4992666;28;20079;-69
2024/03/02 09:00:43;;;;;;;6.47;3.88;;;9.80;96.30;;;;;;4993047;28;20082;-69
2024/03/02 09:03:10;;;;;;;4.68;3.22;;;9.90;96.20;;;;;;4992750;28;20069;-69
2024/03/02 09:05:37;;;;;;;4.60;4.20;;;9.90;96.00;;;;;;4993757;28;20101;-69
2024/03/02 09:08:04;;;;;;;3.92;2.80;;;10.00;95.70;;;;;;4992427;28;20050;-69
2024/03/02 09:10:33;;;;;;;3.22;2.83;;;10.00;95.60;;;;;;4976474;28;20035;-69
2024/03/02 09:13:00;;;;;;;3.38;2.90;;;10.10;96.10;;;;;;4992178;28;20047;-70
2024/03/02 09:15:27;;;;;;;10.07;9.18;;;11.00;96.00;;;;;;4992317;28;20049;-70
2024/03/02 09:17:54;;;;;;;3.85;3.45;;;12.30;95.00;;;;;;4993485;28;20117;-70
2024/03/02 09:20:22;;;;;;;2.67;2.47;;;13.30;92.40;;;;;;4993561;28;20070;-70
2024/03/02 09:22:49;;;;;;;4.03;2.85;;;13.90;91.10;;;;;;4992323;28;20046;-70
2024/03/02 09:25:16;;;;;;;5.57;4.97;;;14.50;91.10;;;;;;4993486;28;20038;-70
2024/03/02 09:27:43;;;;;;;3.40;2.90;;;14.90;90.10;;;;;;4993486;28;20504;-72
2024/03/02 09:30:11;;;;;;;4.72;3.30;;;15.10;88.00;;;;;;4993170;28;20038;-71
2024/03/02 09:32:38;;;;;;;5.13;4.60;;;15.20;87.10;;;;;;4993247;28;20396;-72
2024/03/02 09:35:05;;;;;;;4.00;3.47;;;15.20;87.90;;;;;;4991626;28;20455;-72
2024/03/02 09:37:32;;;;;;;3.83;1.70;;;15.20;85.70;;;;;;4993408;28;20034;-72
2024/03/02 09:39:59;;;;;;;4.47;2.67;;;15.10;85.50;;;;;;4993026;28;20046;-71
2024/03/02 09:42:27;;;;;;;5.90;2.72;;;14.80;85.90;;;;;;4993296;28;20125;-72
2024/03/02 09:44:54;;;;;;;11.25;8.50;;;14.30;87.60;;;;;;4993263;28;20125;-72
2024/03/02 09:47:21;;;;;;;2.15;1.77;;;14.00;88.20;;;;;;4975901;28;20074;-71
2024/03/02 09:49:49;;;;;;;3.40;2.55;;;13.80;88.50;;;;;;4991995;28;20042;-72
2024/03/02 09:52:16;;;;;;;3.15;2.03;;;13.90;88.60;;;;;;4975879;28;20054;-71
2024/03/02 09:54:43;;;;;;;2.58;1.67;;;14.00;88.00;;;;;;4993047;28;20096;-72
2024/03/02 09:57:10;;;;;;;5.40;2.20;;;14.30;88.30;;;;;;4975561;28;20492;-71
2024/03/02 09:59:37;;;;;;;6.43;5.72;;;14.60;86.80;;;;;;4991883;28;20400;-72
2024/03/02 10:02:06;;;;;;;1.48;1.35;;;15.30;86.90;;;;;;4990996;28;20073;-71
2024/03/02 10:04:37;;;;;;;1.35;1.25;;;15.80;84.50;;;;;;4990809;28;20046;-72
2024/03/02 10:07:17;;;;;;;2.05;1.42;;;16.20;84.40;;;;;;4974256;28;20104;-72
2024/03/02 10:09:48;;;;;;;1.90;1.73;;;16.70;81.60;;;;;;5007759;28;20038;-72
2024/03/02 10:12:17;;;;;;;1.30;1.20;;;16.80;81.90;;;;;;4991536;28;20125;-72
2024/03/02 10:14:44;;;;;;;3.17;1.52;;;16.40;80.90;;;;;;4991612;28;20113;-71
2024/03/02 10:17:15;;;;;;;3.25;1.92;;;16.10;81.50;;;;;;5007481;28;20073;-72
2024/03/02 10:19:42;;;;;;;;;;;16.00;81.00;;;;;;4995452;28;20399;-73
2024/03/02 10:22:10;;;;;;;2.10;1.48;;;15.90;81.40;;;;;;5011743;28;19921;-72
2024/03/02 10:24:44;;;;;;;2.90;1.90;;;15.90;82.10;;;;;;4996848;28;20038;-72
2024/03/02 10:27:22;;;;;;;2.22;1.83;;;16.00;82.60;;;;;;4996683;28;20050;-71
2024/03/02 10:29:49;;;;;;;1.67;1.50;;;16.30;80.90;;;;;;5011666;28;20385;-72
2024/03/02 10:32:16;;;;;;;2.10;1.90;;;16.40;80.90;;;;;;4995319;28;20077;-73
2024/03/02 10:34:47;;;;;;;4.28;2.55;;;16.40;80.10;;;;;;5011557;28;20058;-72
2024/03/02 10:37:16;;;;;;;2.80;2.60;;;16.40;80.70;;;;;;5011625;28;20399;-72
2024/03/02 10:39:46;;;;;;;4.95;3.25;;;16.70;80.30;;;;;;4996592;28;20042;-71
2024/03/02 10:42:14;;;;;;;2.97;2.60;;;16.90;78.30;;;;;;5011342;28;20042;-72
2024/03/02 10:44:42;;;;;;;2.97;2.30;;;16.90;77.80;;;;;;4995113;28;20501;-72
2024/03/02 10:47:13;;;;;;;2.20;1.73;;;16.50;77.90;;;;;;4978990;28;20145;-72
2024/03/02 10:49:45;;;;;;;2.50;2.30;;;16.50;78.60;;;;;;4995161;28;20046;-71
2024/03/02 10:52:12;;;;;;;2.22;1.98;;;16.90;78.00;;;;;;4996235;28;20038;-72
2024/03/02 10:54:39;;;;;;;2.85;2.65;;;16.80;78.20;;;;;;4995140;28;20483;-72
2024/03/02 10:57:11;;;;;;;3.72;2.28;;;17.10;76.80;;;;;;4978892;28;20048;-72
2024/03/02 10:59:51;;;;;;;3.72;3.20;;;16.80;77.10;;;;;;4994978;28;20050;-71
2024/03/02 11:02:21;;;;;;;2.33;2.10;;;16.80;76.90;;;;;;4994906;28;20053;-72
2024/03/02 11:04:51;;;;;;;3.90;3.15;;;16.40;77.40;;;;;;4994870;28;20057;-72
2024/03/02 11:07:19;;;;;;;3.63;2.22;;;16.30;78.30;;;;;;4996023;28;20109;-71
2024/03/02 11:09:57;;;;;;;3.75;2.90;;;16.10;79.10;;;;;;4996174;28;20046;-71
2024/03/02 11:12:53;;;;;;;2.30;2.10;;;16.40;77.60;;;;;;5011038;28;20491;-72
2024/03/02 11:15:25;;;;;;;3.50;3.20;;;16.60;77.10;;;;;;4994447;28;20097;-71
2024/03/02 11:17:53;;;;;;;3.75;3.45;;;16.50;77.20;;;;;;4995966;28;20047;-71
2024/03/02 11:20:20;;;;;;;4.53;2.50;;;16.60;77.60;;;;;;4995701;28;20096;-71
2024/03/02 11:22:47;;;;;;;2.65;2.45;;;16.80;76.50;;;;;;5010790;28;20053;-72
2024/03/02 11:25:32;;;;;;;3.67;3.38;;;17.00;76.70;;;;;;4994425;28;20053;-72
2024/03/02 11:28:01;;;;;;;4.15;3.47;;;17.00;75.90;;;;;;4994579;28;20046;-72
2024/03/02 11:30:32;;;;;;;4.38;3.60;;;16.90;76.40;;;;;;5010171;28;20479;-72
2024/03/02 11:33:09;;;;;;;5.70;5.20;;;16.80;76.30;;;;;;5010372;28;20455;-72
2024/03/02 11:35:42;;;;;;;5.55;4.88;;;17.00;76.10;;;;;;4979464;28;20067;-72
2024/03/02 11:38:10;;;;;;;3.90;3.60;;;17.10;76.10;;;;;;4995385;28;20100;-71
2024/03/02 11:40:39;;;;;;;4.05;3.65;;;17.20;75.70;;;;;;4994314;28;20042;-72
2024/03/02 11:43:08;;;;;;;4.13;3.63;;;17.10;75.50;;;;;;4995539;28;20251;-73
2024/03/02 11:45:39;;;;;;;4.28;3.85;;;17.00;76.50;;;;;;4994108;28;20137;-72
2024/03/02 11:48:08;;;;;;;2.83;2.63;;;17.20;76.00;;;;;;4995292;28;20491;-71
2024/03/02 11:50:41;;;;;;;3.38;3.10;;;17.30;75.70;;;;;;4993853;28;20077;-71
2024/03/02 11:53:13;;;;;;;2.20;2.10;;;17.50;75.30;;;;;;4977744;28;20046;-71
2024/03/02 11:55:41;;;;;;;3.58;2.90;;;17.40;74.50;;;;;;4995245;28;20053;-71
2024/03/02 11:58:08;;;;;;;3.10;2.80;;;17.70;74.70;;;;;;4995135;28;20077;-71
2024/03/02 12:00:35;;;;;;;4.30;2.95;;;17.50;74.70;;;;;;4994921;28;20050;-71
2024/03/02 12:03:06;;;;;;;2.40;2.20;;;17.70;74.10;;;;;;5010091;28;20058;-71
2024/03/02 12:05:34;;;;;;;2.05;1.90;;;17.70;72.90;;;;;;4995236;28;20487;-71
2024/03/02 12:08:06;;;;;;;2.72;2.53;;;17.90;73.30;;;;;;4993902;28;20066;-71
2024/03/02 12:10:35;;;;;;;2.90;2.42;;;17.80;72.10;;;;;;4993480;28;20539;-71
2024/03/02 12:13:07;;;;;;;5.00;4.70;;;17.80;72.50;;;;;;5009818;28;20400;-71
2024/03/02 12:15:39;;;;;;;3.38;3.08;;;17.60;72.90;;;;;;4993541;28;20054;-71
2024/03/02 12:18:06;;;;;;;3.08;2.35;;;17.60;73.30;;;;;;4993668;28;20108;-71
2024/03/02 12:20:34;;;;;;;2.65;2.45;;;17.70;73.70;;;;;;4994690;28;20050;-71
2024/03/02 12:23:04;;;;;;;2.63;2.38;;;17.50;73.50;;;;;;4993961;28;20043;-71
2024/03/02 12:25:35;;;;;;;3.53;3.28;;;17.60;73.90;;;;;;4994659;28;20400;-71
2024/03/02 12:28:03;;;;;;;3.97;2.53;;;16.80;73.50;;;;;;4993607;28;20492;-71
2024/03/02 12:30:31;;;;;;;2.60;2.40;;;15.90;76.20;;;;;;4993298;28;20046;-71
2024/03/02 12:32:59;;;;;;;4.43;2.25;;;15.70;77.20;;;;;;4993443;28;20476;-70
2024/03/02 12:35:26;;;;;;;6.65;2.95;;;16.00;76.80;;;;;;4994173;28;20050;-71
2024/03/02 12:37:54;;;;;;;2.75;2.53;;;16.40;76.20;;;;;;4993322;28;20038;-71
2024/03/02 12:40:22;;;;;;;3.50;3.08;;;16.90;74.20;;;;;;4994024;28;20038;-71
2024/03/02 12:42:50;;;;;;;4.13;3.72;;;17.10;73.30;;;;;;4994073;28;20449;-70
2024/03/02 12:45:24;;;;;;;3.42;2.60;;;17.00;73.50;;;;;;4994450;28;20045;-70
2024/03/02 12:47:51;;;;;;;3.03;2.45;;;17.00;73.70;;;;;;5009424;28;20085;-70
2024/03/02 12:50:19;;;;;;;3.38;3.08;;;17.00;73.60;;;;;;4992878;28;20053;-70
2024/03/02 12:52:53;;;;;;;3.83;2.65;;;17.10;73.80;;;;;;5009212;28;20042;-71
2024/03/02 12:55:24;;;;;;;2.20;1.95;;;17.40;72.50;;;;;;4992926;28;20066;-71
2024/03/02 12:57:52;;;;;;;2.28;2.17;;;17.20;73.40;;;;;;5009255;28;20039;-70
2024/03/02 13:00:21;;;;;;;3.22;2.63;;;16.70;74.00;;;;;;4994178;28;20089;-70
2024/03/02 13:02:50;;;;;;;4.10;3.20;;;16.50;74.20;;;;;;4993124;28;20122;-71